Time;durP1;ratioP1;P1;durP2;ratioP2;P2;SDS_P1;SDS_P2;PMS_P1;PMS_P2;Temp;Humidity;BMP_temperature;BMP_pressure;BME280_temperature;BME280_humidity;BME280_pressure;Samples;Min_cycle;Max_cycle;Signal;HPM_P1;HPM_P2
2022/03/18 00:01:04;;;;;;;20.90;5.95;;;;;;;;;;5086507;28;20051;-62
2022/03/18 00:03:30;;;;;;;16.23;5.45;;;;;;;;;;5094698;28;20483;-62
2022/03/18 00:05:56;;;;;;;16.20;6.30;;;;;;;;;;5071947;28;20052;-62
2022/03/18 00:08:22;;;;;;;13.75;6.38;;;;;;;;;;5103809;28;20058;-62
2022/03/18 00:10:49;;;;;;;20.70;6.13;;;;;;;;;;5106078;28;20123;-62
2022/03/18 00:13:15;;;;;;;21.50;6.45;;;;;;;;;;5090460;28;20051;-62
2022/03/18 00:15:41;;;;;;;22.73;7.05;;;;;;;;;;5089392;28;20036;-62
2022/03/18 00:18:07;;;;;;;20.05;6.63;;;;;;;;;;5072008;28;20081;-62
2022/03/18 00:20:33;;;;;;;17.83;7.30;;;;;;;;;;5105272;28;20410;-62
2022/03/18 00:22:59;;;;;;;19.88;6.75;;;;;;;;;;5088909;28;20075;-62
2022/03/18 00:25:26;;;;;;;23.50;7.20;;;;;;;;;;5086718;28;20028;-62
2022/03/18 00:27:52;;;;;;;21.40;6.38;;;;;;;;;;5083443;28;20158;-62
2022/03/18 00:30:18;;;;;;;22.83;7.53;;;;;;;;;;5087890;28;20054;-62
2022/03/18 00:32:45;;;;;;;20.17;7.57;;;;;;;;;;5093843;28;20048;-62
2022/03/18 00:35:12;;;;;;;23.05;7.25;;;;;;;;;;5092932;28;20036;-62
2022/03/18 00:37:39;;;;;;;20.90;6.93;;;;;;;;;;5093348;28;20395;-62
2022/03/18 00:40:06;;;;;;;17.08;6.57;;;;;;;;;;5093313;28;20390;-62
2022/03/18 00:42:32;;;;;;;24.23;8.40;;;;;;;;;;5074271;28;20048;-62
2022/03/18 00:44:59;;;;;;;27.42;8.23;;;;;;;;;;5093581;28;20056;-62
2022/03/18 00:52:55;;;;;;;21.95;7.97;;;;;;;;;;5093411;28;20044;-62
2022/03/18 00:55:21;;;;;;;19.63;6.85;;;;;;;;;;5092598;28;20051;-62
2022/03/18 00:57:47;;;;;;;22.00;7.10;;;;;;;;;;5092313;28;20498;-62
2022/03/18 01:00:13;;;;;;;20.60;7.32;;;;;;;;;;5093364;28;20032;-62
2022/03/18 01:02:39;;;;;;;28.30;7.47;;;;;;;;;;5075161;28;20048;-62
2022/03/18 01:05:06;;;;;;;25.65;7.70;;;;;;;;;;5092507;28;20079;-62
2022/03/18 01:07:32;;;;;;;20.63;7.15;;;;;;;;;;5093276;28;20100;-62
2022/03/18 01:09:58;;;;;;;20.90;7.55;;;;;;;;;;5095350;28;20076;-62
2022/03/18 01:12:25;;;;;;;18.98;6.70;;;;;;;;;;5094414;28;20392;-62
2022/03/18 01:14:52;;;;;;;25.95;7.28;;;;;;;;;;5076543;28;20040;-62
2022/03/18 01:17:18;;;;;;;21.17;7.60;;;;;;;;;;5092671;28;20040;-62
2022/03/18 01:19:45;;;;;;;26.75;7.53;;;;;;;;;;5082634;28;20044;-62
2022/03/18 01:22:11;;;;;;;21.02;8.48;;;;;;;;;;5074750;28;20423;-62
2022/03/18 01:24:38;;;;;;;21.65;7.97;;;;;;;;;;5092218;28;20040;-62
2022/03/18 01:27:05;;;;;;;17.33;6.85;;;;;;;;;;5093084;28;20500;-62
2022/03/18 01:29:31;;;;;;;15.45;6.05;;;;;;;;;;5108128;28;20067;-62
2022/03/18 01:31:57;;;;;;;22.55;8.85;;;;;;;;;;5066442;28;20703;-62
2022/03/18 01:34:24;;;;;;;18.75;6.93;;;;;;;;;;5074645;28;20047;-62
2022/03/18 01:36:50;;;;;;;21.35;7.43;;;;;;;;;;5092916;28;20131;-62
2022/03/18 01:39:16;;;;;;;20.58;7.45;;;;;;;;;;5073939;28;20051;-62
2022/03/18 01:41:43;;;;;;;19.60;7.13;;;;;;;;;;5074394;28;20044;-62
2022/03/18 01:44:10;;;;;;;22.30;7.25;;;;;;;;;;5092565;28;20047;-62
2022/03/18 01:46:37;;;;;;;17.95;6.30;;;;;;;;;;5091663;28;20127;-62
2022/03/18 01:49:04;;;;;;;24.20;8.73;;;;;;;;;;5074035;28;20052;-62
2022/03/18 01:51:30;;;;;;;22.05;8.13;;;;;;;;;;5092035;28;20522;-62
2022/03/18 01:56:59;;;;;;;22.30;7.15;;;;;;;;;;5093091;28;20043;-62
2022/03/18 01:59:25;;;;;;;26.10;7.10;;;;;;;;;;5078746;28;20490;-62
2022/03/18 02:01:51;;;;;;;20.48;7.45;;;;;;;;;;5095802;28;20426;-62
2022/03/18 02:04:18;;;;;;;22.63;7.47;;;;;;;;;;5095126;28;20071;-62
2022/03/18 02:06:44;;;;;;;18.67;7.53;;;;;;;;;;5092997;28;20066;-62
2022/03/18 02:09:10;;;;;;;25.58;7.55;;;;;;;;;;5095841;28;20043;-62
2022/03/18 02:11:38;;;;;;;22.08;7.15;;;;;;;;;;5091693;28;20044;-62
2022/03/18 02:14:04;;;;;;;22.58;8.20;;;;;;;;;;5091096;28;20040;-62
2022/03/18 02:16:30;;;;;;;20.98;7.13;;;;;;;;;;5095292;28;20058;-62
2022/03/18 02:18:56;;;;;;;18.20;7.30;;;;;;;;;;5091206;28;20146;-62
2022/03/18 02:21:24;;;;;;;18.65;7.70;;;;;;;;;;5093948;28;20084;-62
2022/03/18 02:23:50;;;;;;;17.77;7.53;;;;;;;;;;5080538;28;20062;-62
2022/03/18 02:26:16;;;;;;;25.20;8.35;;;;;;;;;;5108117;27;20479;-62
2022/03/18 02:28:42;;;;;;;22.52;8.00;;;;;;;;;;5088725;28;21806;-62
2022/03/18 02:31:09;;;;;;;19.30;7.90;;;;;;;;;;5075359;28;20063;-62
2022/03/18 02:33:35;;;;;;;26.80;9.55;;;;;;;;;;5071797;28;20044;-62
2022/03/18 02:36:01;;;;;;;22.63;8.20;;;;;;;;;;5088797;28;20126;-62
2022/03/18 02:38:27;;;;;;;25.45;8.68;;;;;;;;;;5088012;28;20054;-63
2022/03/18 02:40:53;;;;;;;16.50;8.45;;;;;;;;;;5086973;28;20047;-62
2022/03/18 02:43:19;;;;;;;16.73;7.57;;;;;;;;;;5098090;28;20075;-62
2022/03/18 02:45:45;;;;;;;20.02;8.60;;;;;;;;;;5097759;28;20052;-62
2022/03/18 02:48:12;;;;;;;18.63;9.38;;;;;;;;;;5093823;28;20044;-62
2022/03/18 02:50:38;;;;;;;19.73;8.98;;;;;;;;;;5093493;28;20118;-62
2022/03/18 02:53:04;;;;;;;22.05;7.97;;;;;;;;;;5075548;28;20095;-62
2022/03/18 02:55:30;;;;;;;20.13;8.20;;;;;;;;;;5068795;28;20140;-63
2022/03/18 02:57:56;;;;;;;22.30;8.75;;;;;;;;;;5071469;28;20071;-63
2022/03/18 03:00:29;;;;;;;28.88;9.63;;;;;;;;;;5070919;28;20036;-63
2022/03/18 03:02:55;;;;;;;20.17;8.68;;;;;;;;;;5069338;28;20511;-62
2022/03/18 03:08:06;;;;;;;23.27;8.32;;;;;;;;;;5070074;28;20483;-62
2022/03/18 03:10:33;;;;;;;20.83;7.95;;;;;;;;;;5069901;28;20041;-62
2022/03/18 03:13:01;;;;;;;21.88;7.50;;;;;;;;;;5070001;28;20076;-62
2022/03/18 03:15:27;;;;;;;20.45;7.82;;;;;;;;;;5067770;28;20041;-62
2022/03/18 03:17:54;;;;;;;22.10;8.30;;;;;;;;;;5069733;28;20056;-62
2022/03/18 03:20:20;;;;;;;22.98;8.50;;;;;;;;;;5070289;28;20038;-62
2022/03/18 03:22:46;;;;;;;23.02;8.60;;;;;;;;;;5070587;28;20044;-62
2022/03/18 03:25:12;;;;;;;22.60;8.98;;;;;;;;;;5081538;28;20131;-62
2022/03/18 03:27:38;;;;;;;23.33;9.48;;;;;;;;;;5070273;28;20512;-62
2022/03/18 03:30:06;;;;;;;28.00;10.57;;;;;;;;;;5068228;28;20044;-62
2022/03/18 03:32:32;;;;;;;27.15;9.57;;;;;;;;;;5069863;28;20443;-62
2022/03/18 03:34:59;;;;;;;18.45;8.45;;;;;;;;;;5070393;28;20042;-62
2022/03/18 03:37:26;;;;;;;19.13;8.90;;;;;;;;;;5070805;28;20052;-62
2022/03/18 03:39:53;;;;;;;18.88;9.30;;;;;;;;;;5069722;28;20448;-62
2022/03/18 03:42:19;;;;;;;22.70;9.65;;;;;;;;;;5063464;28;20086;-62
2022/03/18 03:44:46;;;;;;;34.10;13.88;;;;;;;;;;5061228;28;21705;-62
2022/03/18 03:47:12;;;;;;;22.08;10.10;;;;;;;;;;5070248;28;20041;-63
2022/03/18 03:49:38;;;;;;;23.13;10.07;;;;;;;;;;5069370;28;20044;-63
2022/03/18 03:52:08;;;;;;;25.17;11.23;;;;;;;;;;5067769;28;20066;-62
2022/03/18 03:54:34;;;;;;;24.52;9.57;;;;;;;;;;5070873;28;20091;-63
2022/03/18 03:57:00;;;;;;;21.17;9.57;;;;;;;;;;5090392;28;20052;-62
2022/03/18 03:59:27;;;;;;;23.20;9.50;;;;;;;;;;5072150;28;20036;-62
2022/03/18 04:01:53;;;;;;;21.05;9.38;;;;;;;;;;5094938;28;20398;-62
2022/03/18 04:04:19;;;;;;;19.60;8.98;;;;;;;;;;5094236;28;20116;-62
2022/03/18 04:06:45;;;;;;;21.02;8.82;;;;;;;;;;5096607;28;20491;-62
2022/03/18 04:09:12;;;;;;;26.38;9.90;;;;;;;;;;5080509;28;20199;-62
2022/03/18 04:11:38;;;;;;;23.40;9.77;;;;;;;;;;5095309;28;20059;-62
2022/03/18 04:14:05;;;;;;;26.58;9.65;;;;;;;;;;5075398;28;20072;-62
2022/03/18 04:16:31;;;;;;;22.45;9.77;;;;;;;;;;5094493;28;20044;-62
2022/03/18 04:18:57;;;;;;;25.70;9.93;;;;;;;;;;5110310;28;20044;-63
2022/03/18 04:21:23;;;;;;;21.02;9.68;;;;;;;;;;5092928;28;20055;-62
2022/03/18 04:23:49;;;;;;;23.00;10.25;;;;;;;;;;5094205;28;20054;-63
2022/03/18 04:26:16;;;;;;;20.60;9.90;;;;;;;;;;5094225;28;20028;-63
2022/03/18 04:28:42;;;;;;;21.00;9.13;;;;;;;;;;5089113;28;20036;-62
2022/03/18 04:31:08;;;;;;;20.63;9.93;;;;;;;;;;5093978;28;20040;-62
2022/03/18 04:33:34;;;;;;;16.85;10.73;;;;;;;;;;5093964;28;20036;-63
2022/03/18 04:36:00;;;;;;;20.50;8.65;;;;;;;;;;5093428;28;20043;-63
2022/03/18 04:38:26;;;;;;;20.17;10.25;;;;;;;;;;5072473;28;20446;-63
2022/03/18 04:40:53;;;;;;;17.15;8.60;;;;;;;;;;5092445;28;20119;-63
2022/03/18 04:43:19;;;;;;;21.52;8.80;;;;;;;;;;5075492;28;20032;-62
2022/03/18 04:45:45;;;;;;;18.80;8.20;;;;;;;;;;5088199;28;20149;-63
2022/03/18 04:48:11;;;;;;;15.55;8.00;;;;;;;;;;5064960;28;20076;-63
2022/03/18 04:50:37;;;;;;;18.30;8.35;;;;;;;;;;5075519;28;20082;-62
2022/03/18 04:53:04;;;;;;;17.90;9.25;;;;;;;;;;5086089;28;20036;-62
2022/03/18 04:55:30;;;;;;;23.23;8.18;;;;;;;;;;5073559;28;20044;-63
2022/03/18 04:57:56;;;;;;;20.13;9.10;;;;;;;;;;5092298;28;20072;-63
2022/03/18 05:00:24;;;;;;;22.17;9.55;;;;;;;;;;5107699;28;20044;-63
2022/03/18 05:02:52;;;;;;;16.77;8.77;;;;;;;;;;5091238;28;20079;-62
2022/03/18 05:05:20;;;;;;;14.20;8.52;;;;;;;;;;5092503;28;20032;-62
2022/03/18 05:07:50;;;;;;;21.13;8.57;;;;;;;;;;5071988;28;20460;-62
2022/03/18 05:10:17;;;;;;;20.08;8.68;;;;;;;;;;5090223;28;20051;-62
2022/03/18 05:12:43;;;;;;;19.40;9.20;;;;;;;;;;5073643;28;20047;-62
2022/03/18 05:15:10;;;;;;;22.60;9.52;;;;;;;;;;5094859;28;20421;-62
2022/03/18 05:17:37;;;;;;;18.90;8.48;;;;;;;;;;5076566;28;20368;-62
2022/03/18 05:20:04;;;;;;;21.40;9.63;;;;;;;;;;5092166;28;20396;-62
2022/03/18 05:22:30;;;;;;;21.02;9.35;;;;;;;;;;5091771;28;20520;-62
2022/03/18 05:24:57;;;;;;;25.27;11.05;;;;;;;;;;5091185;28;20128;-62
2022/03/18 05:27:24;;;;;;;14.93;9.05;;;;;;;;;;5091346;28;20079;-62
2022/03/18 05:29:51;;;;;;;14.82;8.88;;;;;;;;;;5091884;28;20093;-62
2022/03/18 05:32:18;;;;;;;21.67;9.45;;;;;;;;;;5106325;28;20047;-62
2022/03/18 05:34:44;;;;;;;17.60;9.15;;;;;;;;;;5091660;28;20119;-62
2022/03/18 05:37:11;;;;;;;20.67;9.55;;;;;;;;;;5090994;28;20044;-62
2022/03/18 05:39:37;;;;;;;23.95;10.73;;;;;;;;;;5091495;28;20074;-61
2022/03/18 05:42:04;;;;;;;22.02;10.82;;;;;;;;;;5073436;28;20127;-61
2022/03/18 05:44:30;;;;;;;20.25;10.88;;;;;;;;;;5089277;28;20051;-62
2022/03/18 05:46:57;;;;;;;21.30;11.05;;;;;;;;;;5091950;28;20189;-61
2022/03/18 05:49:23;;;;;;;21.27;11.15;;;;;;;;;;5067513;28;20054;-62
2022/03/18 05:51:50;;;;;;;19.90;10.75;;;;;;;;;;5069755;28;20043;-62
2022/03/18 05:54:16;;;;;;;25.83;11.77;;;;;;;;;;5070219;28;20040;-62
2022/03/18 05:56:54;;;;;;;21.67;11.65;;;;;;;;;;5049526;28;1114042;-62
2022/03/18 05:59:21;;;;;;;21.33;10.20;;;;;;;;;;5084555;28;20495;-62
2022/03/18 06:01:47;;;;;;;19.98;9.73;;;;;;;;;;5089719;28;20127;-62
2022/03/18 06:04:14;;;;;;;17.23;8.48;;;;;;;;;;5089734;28;20051;-62
2022/03/18 06:06:41;;;;;;;20.40;9.98;;;;;;;;;;5087280;28;20097;-62
2022/03/18 06:11:52;;;;;;;18.00;11.02;;;;;;;;;;5086551;28;20036;-62
2022/03/18 06:14:20;;;;;;;27.17;11.35;;;;;;;;;;5088067;28;20047;-62
2022/03/18 06:16:47;;;;;;;21.35;11.18;;;;;;;;;;5087952;28;20033;-63
2022/03/18 06:19:14;;;;;;;17.95;12.25;;;;;;;;;;5102810;27;20048;-65
2022/03/18 06:21:41;;;;;;;21.13;11.63;;;;;;;;;;5088325;28;20449;-62
2022/03/18 06:24:09;;;;;;;23.65;11.75;;;;;;;;;;5087409;28;20062;-62
2022/03/18 06:26:35;;;;;;;22.85;12.43;;;;;;;;;;5080323;28;20040;-63
2022/03/18 06:29:02;;;;;;;27.25;12.70;;;;;;;;;;5099336;28;20112;-63
2022/03/18 06:31:28;;;;;;;22.75;11.55;;;;;;;;;;5088874;28;20093;-63
2022/03/18 06:33:54;;;;;;;25.42;12.48;;;;;;;;;;5088687;28;20032;-63
2022/03/18 06:36:20;;;;;;;21.17;11.93;;;;;;;;;;5070630;28;20501;-63
2022/03/18 06:38:46;;;;;;;26.35;12.85;;;;;;;;;;5088026;28;20043;-62
2022/03/18 06:41:14;;;;;;;25.50;11.73;;;;;;;;;;5086880;28;20052;-63
2022/03/18 06:43:42;;;;;;;24.10;13.73;;;;;;;;;;5101432;28;20056;-62
2022/03/18 06:46:08;;;;;;;26.83;14.93;;;;;;;;;;5051941;28;20092;-62
2022/03/18 06:48:34;;;;;;;25.08;13.30;;;;;;;;;;5088011;28;20113;-62
2022/03/18 06:51:01;;;;;;;24.38;14.60;;;;;;;;;;5068042;28;20040;-62
2022/03/18 06:53:27;;;;;;;27.00;14.35;;;;;;;;;;5088417;28;20112;-63
2022/03/18 06:55:54;;;;;;;25.80;13.15;;;;;;;;;;5086980;28;20076;-63
2022/03/18 06:58:20;;;;;;;23.23;14.52;;;;;;;;;;5088129;28;20040;-62
2022/03/18 07:00:46;;;;;;;20.90;14.10;;;;;;;;;;5069536;28;20044;-63
2022/03/18 07:03:13;;;;;;;24.83;16.13;;;;;;;;;;5068514;28;20048;-63
2022/03/18 07:05:39;;;;;;;23.08;16.17;;;;;;;;;;5053350;28;20057;-62
2022/03/18 07:08:05;;;;;;;28.13;15.80;;;;;;;;;;5080256;28;20122;-62
2022/03/18 07:10:32;;;;;;;31.70;17.48;;;;;;;;;;5090544;28;20451;-62
2022/03/18 07:12:58;;;;;;;27.02;16.30;;;;;;;;;;5072529;28;20107;-62
2022/03/18 07:15:24;;;;;;;36.20;17.58;;;;;;;;;;5090752;28;20120;-62
2022/03/18 07:17:59;;;;;;;34.17;18.13;;;;;;;;;;5071448;28;20044;-63
2022/03/18 07:20:28;;;;;;;26.45;17.27;;;;;;;;;;5080282;28;20377;-63
2022/03/18 07:23:06;;;;;;;26.85;16.30;;;;;;;;;;5074716;28;20151;-63
2022/03/18 07:25:32;;;;;;;28.08;17.88;;;;;;;;;;5081345;28;20128;-63
2022/03/18 07:27:59;;;;;;;30.30;17.90;;;;;;;;;;5064324;28;20036;-62
2022/03/18 07:30:25;;;;;;;32.75;18.60;;;;;;;;;;5086637;28;20048;-63
2022/03/18 07:32:51;;;;;;;30.70;20.02;;;;;;;;;;5086902;28;20510;-63
2022/03/18 07:35:18;;;;;;;31.73;19.90;;;;;;;;;;5077436;28;20043;-62
2022/03/18 07:37:44;;;;;;;29.13;20.08;;;;;;;;;;5090552;28;20041;-63
2022/03/18 07:40:12;;;;;;;33.28;21.88;;;;;;;;;;5065692;28;20093;-63
2022/03/18 07:42:41;;;;;;;37.08;21.98;;;;;;;;;;5066644;28;20048;-63
2022/03/18 07:45:08;;;;;;;50.85;22.67;;;;;;;;;;5049898;28;20479;-63
2022/03/18 07:47:34;;;;;;;54.55;21.63;;;;;;;;;;5071783;28;20127;-62
2022/03/18 07:50:00;;;;;;;41.67;20.58;;;;;;;;;;5044846;28;20086;-63
2022/03/18 07:52:26;;;;;;;46.70;21.20;;;;;;;;;;5080687;28;20052;-63
2022/03/18 07:54:53;;;;;;;45.58;21.15;;;;;;;;;;5089790;28;20048;-63
2022/03/18 07:57:19;;;;;;;42.42;19.77;;;;;;;;;;5070594;28;20059;-63
2022/03/18 07:59:45;;;;;;;48.33;18.33;;;;;;;;;;5090617;28;20455;-63
2022/03/18 08:02:11;;;;;;;40.08;17.45;;;;;;;;;;5100569;28;20048;-63
2022/03/18 08:04:37;;;;;;;46.95;18.95;;;;;;;;;;5064823;28;20122;-63
2022/03/18 08:07:03;;;;;;;44.25;17.65;;;;;;;;;;5079889;28;20072;-63
2022/03/18 08:09:29;;;;;;;48.38;17.67;;;;;;;;;;5058725;28;20087;-63
2022/03/18 08:11:56;;;;;;;40.63;13.07;;;;;;;;;;5087878;28;20075;-63
2022/03/18 08:14:23;;;;;;;44.72;12.32;;;;;;;;;;5091507;28;20345;-63
2022/03/18 08:16:49;;;;;;;41.42;12.95;;;;;;;;;;5091002;28;20040;-63
2022/03/18 08:19:15;;;;;;;34.75;11.68;;;;;;;;;;5090532;28;20077;-63
2022/03/18 08:21:41;;;;;;;34.05;12.40;;;;;;;;;;5091028;28;20076;-63
2022/03/18 08:24:08;;;;;;;36.03;12.68;;;;;;;;;;5090919;28;20403;-63
2022/03/18 08:26:37;;;;;;;35.30;12.30;;;;;;;;;;5090538;28;20596;-63
2022/03/18 08:29:05;;;;;;;37.80;12.85;;;;;;;;;;5091165;28;20063;-63
2022/03/18 08:31:31;;;;;;;39.78;13.65;;;;;;;;;;5072612;28;20119;-63
2022/03/18 08:33:58;;;;;;;42.60;13.55;;;;;;;;;;5068525;28;20040;-63
2022/03/18 08:36:24;;;;;;;57.97;13.98;;;;;;;;;;5085986;28;20048;-63
2022/03/18 08:38:50;;;;;;;32.53;12.30;;;;;;;;;;5085535;28;20032;-63
2022/03/18 08:41:16;;;;;;;50.45;12.85;;;;;;;;;;5083042;28;20483;-63
2022/03/18 08:43:42;;;;;;;32.58;11.35;;;;;;;;;;5084523;28;20036;-63
2022/03/18 08:46:09;;;;;;;36.22;12.05;;;;;;;;;;5082884;28;20047;-63
2022/03/18 08:48:35;;;;;;;36.72;11.63;;;;;;;;;;5064194;28;20048;-63
2022/03/18 08:51:01;;;;;;;32.38;10.48;;;;;;;;;;5098247;28;20491;-63
2022/03/18 08:53:27;;;;;;;26.30;11.90;;;;;;;;;;5058716;28;20044;-63
2022/03/18 08:55:56;;;;;;;30.20;11.07;;;;;;;;;;5092911;28;20481;-63
2022/03/18 08:58:22;;;;;;;32.40;11.00;;;;;;;;;;5089534;28;20083;-63
2022/03/18 09:00:48;;;;;;;32.53;10.23;;;;;;;;;;5078559;28;20071;-63
2022/03/18 09:03:15;;;;;;;32.40;9.23;;;;;;;;;;5091545;28;20451;-63
2022/03/18 09:05:42;;;;;;;27.25;8.75;;;;;;;;;;5072417;28;20040;-63
2022/03/18 09:08:08;;;;;;;33.95;9.85;;;;;;;;;;5088967;28;20079;-63
2022/03/18 09:10:34;;;;;;;33.67;11.50;;;;;;;;;;5089621;28;20051;-63
2022/03/18 09:13:01;;;;;;;30.45;8.50;;;;;;;;;;5063554;28;20056;-63
2022/03/18 09:15:29;;;;;;;26.65;9.25;;;;;;;;;;5063788;28;20096;-63
2022/03/18 09:17:55;;;;;;;29.80;8.73;;;;;;;;;;5079348;28;20105;-63
2022/03/18 09:20:21;;;;;;;29.85;8.57;;;;;;;;;;5089611;28;20048;-63
2022/03/18 09:22:48;;;;;;;33.10;7.43;;;;;;;;;;5077634;28;20150;-63
2022/03/18 09:25:14;;;;;;;17.92;6.53;;;;;;;;;;5089304;28;20486;-63
2022/03/18 09:27:41;;;;;;;28.83;7.15;;;;;;;;;;5099446;28;20051;-63
2022/03/18 09:30:07;;;;;;;31.52;8.55;;;;;;;;;;5069122;28;20120;-63
2022/03/18 09:32:33;;;;;;;25.83;6.70;;;;;;;;;;5085893;28;20036;-63
2022/03/18 09:35:00;;;;;;;32.85;7.18;;;;;;;;;;5080866;28;20032;-63
2022/03/18 09:37:26;;;;;;;20.20;6.70;;;;;;;;;;5061833;28;20131;-62
2022/03/18 09:39:52;;;;;;;29.27;5.65;;;;;;;;;;5079294;28;20116;-62
2022/03/18 09:42:18;;;;;;;25.30;6.95;;;;;;;;;;5093044;28;20048;-63
2022/03/18 09:44:45;;;;;;;26.30;6.22;;;;;;;;;;5088420;28;20043;-63
2022/03/18 09:47:11;;;;;;;26.95;7.78;;;;;;;;;;5076411;28;20102;-62
2022/03/18 09:49:38;;;;;;;30.83;7.32;;;;;;;;;;5101403;28;20365;-63
2022/03/18 09:52:04;;;;;;;23.35;6.47;;;;;;;;;;5085582;28;20510;-63
2022/03/18 09:54:32;;;;;;;25.38;6.10;;;;;;;;;;5088879;28;20048;-63
2022/03/18 09:56:58;;;;;;;29.33;5.70;;;;;;;;;;5087309;28;20072;-62
2022/03/18 09:59:26;;;;;;;23.40;5.63;;;;;;;;;;5089505;28;20113;-62
2022/03/18 10:02:12;;;;;;;18.52;5.72;;;;;;;;;;5086066;28;20099;-63
2022/03/18 10:04:53;;;;;;;16.15;5.18;;;;;;;;;;5085074;28;20041;-63
2022/03/18 10:07:21;;;;;;;24.95;5.68;;;;;;;;;;5067196;28;20464;-62
2022/03/18 10:09:48;;;;;;;22.63;5.40;;;;;;;;;;5054383;28;20083;-63
2022/03/18 10:12:33;;;;;;;26.95;5.55;;;;;;;;;;5088193;28;20120;-62
2022/03/18 10:15:04;;;;;;;21.20;5.63;;;;;;;;;;5086119;28;20036;-63
2022/03/18 10:17:38;;;;;;;23.45;6.15;;;;;;;;;;5068387;28;20127;-62
2022/03/18 10:20:04;;;;;;;24.30;5.47;;;;;;;;;;5065754;28;20043;-62
2022/03/18 10:22:30;;;;;;;20.80;5.15;;;;;;;;;;5084818;28;20114;-62
2022/03/18 10:24:56;;;;;;;24.67;5.65;;;;;;;;;;5064636;28;20044;-62
2022/03/18 10:27:23;;;;;;;19.67;5.40;;;;;;;;;;5080412;28;20055;-61
2022/03/18 10:29:50;;;;;;;28.27;5.85;;;;;;;;;;5080582;28;20398;-62
2022/03/18 10:32:17;;;;;;;31.35;7.85;;;;;;;;;;5078062;28;20086;-62
2022/03/18 10:37:42;;;;;;;21.25;5.40;;;;;;;;;;5070427;28;20052;-62
2022/03/18 10:40:09;;;;;;;28.33;6.57;;;;;;;;;;5103381;28;20143;-62
2022/03/18 10:42:35;;;;;;;23.13;5.82;;;;;;;;;;5086276;28;20344;-62
2022/03/18 10:45:02;;;;;;;22.42;5.43;;;;;;;;;;5088262;28;20036;-62
2022/03/18 10:47:31;;;;;;;25.13;6.30;;;;;;;;;;5066321;28;20044;-62
2022/03/18 10:50:10;;;;;;;24.95;5.68;;;;;;;;;;5085272;28;20488;-62
2022/03/18 10:52:37;;;;;;;23.70;5.82;;;;;;;;;;5082516;28;20063;-62
2022/03/18 10:55:19;;;;;;;20.27;6.30;;;;;;;;;;5080508;28;20059;-63
2022/03/18 10:57:50;;;;;;;22.13;5.20;;;;;;;;;;5081210;28;20070;-63
2022/03/18 11:00:17;;;;;;;26.42;6.88;;;;;;;;;;5060074;28;20487;-62
2022/03/18 11:02:45;;;;;;;27.95;5.55;;;;;;;;;;5086449;28;20402;-63
2022/03/18 11:05:13;;;;;;;25.88;6.13;;;;;;;;;;5079727;28;20044;-63
2022/03/18 11:07:41;;;;;;;22.98;5.85;;;;;;;;;;5070463;28;20051;-63
2022/03/18 11:12:55;;;;;;;18.85;5.68;;;;;;;;;;5085625;28;20492;-63
2022/03/18 11:15:21;;;;;;;23.92;6.07;;;;;;;;;;5084412;28;20130;-63
2022/03/18 11:17:48;;;;;;;20.77;5.30;;;;;;;;;;5066536;28;20079;-63
2022/03/18 11:20:16;;;;;;;26.25;5.43;;;;;;;;;;5063978;28;20051;-63
2022/03/18 11:22:43;;;;;;;21.48;5.50;;;;;;;;;;5080950;28;20075;-63
2022/03/18 11:25:10;;;;;;;23.45;5.43;;;;;;;;;;5079322;28;20123;-63
2022/03/18 11:27:41;;;;;;;24.83;6.07;;;;;;;;;;5080341;28;20395;-64
2022/03/18 11:30:17;;;;;;;21.33;4.90;;;;;;;;;;5075302;28;20040;-63
2022/03/18 11:32:43;;;;;;;23.35;5.10;;;;;;;;;;5077370;28;20479;-63
2022/03/18 11:35:09;;;;;;;23.45;5.20;;;;;;;;;;5076802;28;20091;-63
2022/03/18 11:37:38;;;;;;;22.55;5.13;;;;;;;;;;5086308;28;20047;-63
2022/03/18 11:40:30;;;;;;;23.83;5.32;;;;;;;;;;5087156;28;20123;-63
2022/03/18 11:42:56;;;;;;;22.05;4.30;;;;;;;;;;5091070;28;20048;-64
2022/03/18 11:45:34;;;;;;;20.15;5.47;;;;;;;;;;5071466;28;20044;-64
2022/03/18 11:48:00;;;;;;;24.63;4.95;;;;;;;;;;5086423;28;20074;-63
2022/03/18 11:50:42;;;;;;;19.15;4.70;;;;;;;;;;5068371;28;20083;-63
2022/03/18 11:53:15;;;;;;;18.40;4.70;;;;;;;;;;5063783;28;20051;-63
2022/03/18 11:55:45;;;;;;;18.90;4.80;;;;;;;;;;5084613;28;20121;-63
2022/03/18 11:58:29;;;;;;;15.20;4.70;;;;;;;;;;5081925;28;20360;-63
2022/03/18 12:00:55;;;;;;;19.00;4.82;;;;;;;;;;5096769;28;20091;-63
2022/03/18 12:03:21;;;;;;;19.83;4.40;;;;;;;;;;5093938;28;20052;-63
2022/03/18 12:05:54;;;;;;;21.67;5.18;;;;;;;;;;5077294;28;20036;-63
2022/03/18 12:08:40;;;;;;;16.77;4.03;;;;;;;;;;5075878;28;20045;-63
2022/03/18 12:11:24;;;;;;;21.75;4.38;;;;;;;;;;5080010;28;20376;-63
2022/03/18 12:13:50;;;;;;;19.70;4.93;;;;;;;;;;5084510;28;20040;-63
2022/03/18 12:16:19;;;;;;;20.65;4.53;;;;;;;;;;5089753;28;20074;-63
2022/03/18 12:18:46;;;;;;;23.75;5.70;;;;;;;;;;5091330;28;20051;-63
2022/03/18 12:21:13;;;;;;;16.73;4.15;;;;;;;;;;5089160;28;20032;-63
2022/03/18 12:23:39;;;;;;;28.73;4.93;;;;;;;;;;5072707;28;20044;-63
2022/03/18 12:26:05;;;;;;;15.55;3.83;;;;;;;;;;5088509;28;20127;-63
2022/03/18 12:28:45;;;;;;;16.48;3.92;;;;;;;;;;5087482;28;20226;-63
2022/03/18 12:31:14;;;;;;;19.63;5.00;;;;;;;;;;5084491;28;20051;-63
2022/03/18 12:33:40;;;;;;;21.30;4.53;;;;;;;;;;5083362;28;20043;-63
2022/03/18 12:36:06;;;;;;;19.10;4.20;;;;;;;;;;5091223;28;20040;-63
2022/03/18 12:38:32;;;;;;;16.17;3.90;;;;;;;;;;5082020;28;20360;-63
2022/03/18 12:40:59;;;;;;;22.10;4.28;;;;;;;;;;5080515;28;20036;-63
2022/03/18 12:43:29;;;;;;;17.13;4.18;;;;;;;;;;5081391;28;20117;-63
2022/03/18 12:45:55;;;;;;;21.83;5.20;;;;;;;;;;5079194;28;20464;-63
2022/03/18 12:48:22;;;;;;;29.60;5.43;;;;;;;;;;5062059;28;20041;-63
2022/03/18 12:50:50;;;;;;;20.92;4.43;;;;;;;;;;5058658;28;20130;-63
2022/03/18 12:53:18;;;;;;;22.38;4.50;;;;;;;;;;5080107;28;20166;-63
2022/03/18 12:55:46;;;;;;;21.38;4.10;;;;;;;;;;5086920;28;20096;-63
2022/03/18 12:58:13;;;;;;;26.40;4.55;;;;;;;;;;5089699;28;20381;-63
2022/03/18 13:00:41;;;;;;;22.73;4.95;;;;;;;;;;5072919;28;20055;-63
2022/03/18 13:03:14;;;;;;;23.70;4.72;;;;;;;;;;5087325;28;20040;-73
2022/03/18 13:05:41;;;;;;;17.98;3.80;;;;;;;;;;5087006;28;20116;-63
2022/03/18 13:08:07;;;;;;;20.67;4.57;;;;;;;;;;5090484;28;20180;-63
2022/03/18 13:10:33;;;;;;;17.52;4.82;;;;;;;;;;5083766;28;20505;-63
2022/03/18 13:13:10;;;;;;;16.02;3.65;;;;;;;;;;5083483;28;20083;-63
2022/03/18 13:15:39;;;;;;;26.35;5.05;;;;;;;;;;5082556;28;20132;-63
2022/03/18 13:18:10;;;;;;;18.20;4.32;;;;;;;;;;5097189;28;20053;-63
2022/03/18 13:20:36;;;;;;;17.70;3.90;;;;;;;;;;5090221;28;20048;-63
2022/03/18 13:23:03;;;;;;;14.52;3.88;;;;;;;;;;5084310;28;20040;-64
2022/03/18 13:25:29;;;;;;;17.40;3.63;;;;;;;;;;5091046;28;20047;-63
2022/03/18 13:27:55;;;;;;;19.13;4.30;;;;;;;;;;5094819;28;20037;-63
2022/03/18 13:33:10;;;;;;;21.92;3.97;;;;;;;;;;5086963;28;20044;-63
2022/03/18 13:35:45;;;;;;;20.35;3.85;;;;;;;;;;5070873;28;20479;-63
2022/03/18 13:38:14;;;;;;;20.10;3.55;;;;;;;;;;5088349;28;20107;-63
2022/03/18 13:40:43;;;;;;;17.08;4.47;;;;;;;;;;5077658;28;20135;-63
2022/03/18 13:43:09;;;;;;;22.55;4.10;;;;;;;;;;5090601;28;20058;-63
2022/03/18 13:45:37;;;;;;;21.27;4.57;;;;;;;;;;5090668;28;20428;-63
2022/03/18 13:48:05;;;;;;;18.27;3.95;;;;;;;;;;5089278;28;20480;-63
2022/03/18 13:50:45;;;;;;;23.33;4.25;;;;;;;;;;5065629;28;20096;-62
2022/03/18 13:53:18;;;;;;;23.42;3.90;;;;;;;;;;5082949;28;20388;-63
2022/03/18 13:55:44;;;;;;;18.88;3.67;;;;;;;;;;5080978;28;20071;-62
2022/03/18 13:58:11;;;;;;;15.48;3.58;;;;;;;;;;5087633;28;20062;-62
2022/03/18 14:00:37;;;;;;;21.08;3.97;;;;;;;;;;5081444;28;20118;-62
2022/03/18 14:03:05;;;;;;;20.05;3.55;;;;;;;;;;5091370;28;20119;-62
2022/03/18 14:05:32;;;;;;;21.17;4.13;;;;;;;;;;5096156;28;20040;-62
2022/03/18 14:08:00;;;;;;;18.75;3.45;;;;;;;;;;5075028;28;20109;-62
2022/03/18 14:10:40;;;;;;;16.48;3.45;;;;;;;;;;5074986;28;20348;-62
2022/03/18 14:13:10;;;;;;;24.52;3.33;;;;;;;;;;5074842;28;20044;-63
2022/03/18 14:15:37;;;;;;;18.58;3.75;;;;;;;;;;5089455;28;20504;-63
2022/03/18 14:18:05;;;;;;;23.52;4.60;;;;;;;;;;5073924;28;20387;-62
2022/03/18 14:20:32;;;;;;;18.67;4.18;;;;;;;;;;5092569;28;20226;-62
2022/03/18 14:23:00;;;;;;;22.50;4.43;;;;;;;;;;5093043;28;20036;-63
2022/03/18 14:25:28;;;;;;;24.83;4.70;;;;;;;;;;5092030;28;20040;-62
2022/03/18 14:27:54;;;;;;;19.50;4.20;;;;;;;;;;5087148;28;20170;-62
2022/03/18 14:30:23;;;;;;;22.50;3.88;;;;;;;;;;5081313;28;20066;-62
2022/03/18 14:32:51;;;;;;;11.75;2.97;;;;;;;;;;5062968;28;20044;-63
2022/03/18 14:35:18;;;;;;;16.38;4.40;;;;;;;;;;5080356;28;20475;-62
2022/03/18 14:37:45;;;;;;;18.15;4.35;;;;;;;;;;5080539;28;20048;-62
2022/03/18 14:40:12;;;;;;;18.70;4.10;;;;;;;;;;5088242;28;20040;-63
2022/03/18 14:42:40;;;;;;;16.35;4.07;;;;;;;;;;5085937;28;20191;-62
2022/03/18 14:45:07;;;;;;;19.10;4.30;;;;;;;;;;5086700;28;20041;-63
2022/03/18 14:47:33;;;;;;;21.67;3.83;;;;;;;;;;5089232;28;20040;-62
2022/03/18 14:50:00;;;;;;;18.30;3.72;;;;;;;;;;5087342;28;20040;-62